Time;durP1;ratioP1;P1;durP2;ratioP2;P2;SDS_P1;SDS_P2;PMS_P1;PMS_P2;Temp;Humidity;BMP_temperature;BMP_pressure;BME280_temperature;BME280_humidity;BME280_pressure;Samples;Min_cycle;Max_cycle;Signal;HPM_P1;HPM_P2
2022/03/29 00:01:25;;;;;;;;;;;8.10;42.90;;;5.44;58.82;95396.53;4995700;28;1253;-58
2022/03/29 00:03:54;;;;;;;;;;;8.00;42.80;;;5.38;57.99;95397.47;4995713;28;1284;-57
2022/03/29 00:06:20;;;;;;;;;;;8.00;43.10;;;5.42;58.45;95388.84;4995574;28;1351;-57
2022/03/29 00:08:46;;;;;;;;;;;8.00;43.30;;;5.39;58.82;95391.16;4995628;28;1327;-58
2022/03/29 00:11:13;;;;;;;;;;;8.00;43.20;;;5.35;58.62;95382.91;5010625;22;1995;-46
2022/03/29 00:13:45;;;;;;;;;;;8.00;43.40;;;5.30;58.72;95377.53;5012940;28;2193;-43
2022/03/29 00:16:13;;;;;;;;;;;7.90;43.30;;;5.26;59.04;95381.66;5008905;28;1432;-43
2022/03/29 00:18:44;;;;;;;;;;;7.90;43.40;;;5.32;58.32;95393.94;5017754;28;1890;-44
2022/03/29 00:21:19;;;;;;;;;;;7.80;43.50;;;5.29;58.43;95384.63;5022184;28;1352;-43
2022/03/29 00:23:50;;;;;;;;;;;7.80;43.60;;;5.26;58.57;95382.47;5033648;28;842;-43
2022/03/29 00:26:21;;;;;;;;;;;7.80;43.80;;;5.22;58.76;95380.53;5035147;28;1356;-45
2022/03/29 00:28:50;;;;;;;;;;;7.80;44.00;;;5.25;59.08;95370.31;5033715;28;1363;-46
2022/03/29 00:31:19;;;;;;;;;;;7.80;44.30;;;5.22;58.65;95373.41;5035029;28;1300;-43
2022/03/29 00:33:49;;;;;;;;;;;7.80;44.40;;;5.19;58.85;95373.09;5035349;28;1320;-47
2022/03/29 00:36:16;;;;;;;;;;;7.70;44.40;;;5.15;58.98;95364.03;5034122;28;1387;-44
2022/03/29 00:38:48;;;;;;;;;;;7.70;44.50;;;5.08;59.76;95359.69;5031811;28;1938;-43
2022/03/29 00:41:16;;;;;;;;;;;7.70;44.70;;;5.02;60.43;95359.84;5015050;28;1359;-45
2022/03/29 00:43:41;;;;;;;;;;;7.70;44.60;;;4.99;60.06;95355.03;5031238;28;1872;-43
2022/03/29 00:46:07;;;;;;;;;;;7.60;44.60;;;4.92;60.73;95356.97;5033616;28;1323;-46
2022/03/29 00:48:36;;;;;;;;;;;7.60;44.80;;;4.86;60.98;95353.47;5032753;28;1293;-47
2022/03/29 00:51:02;;;;;;;;;;;7.60;45.50;;;4.86;60.81;95348.19;5034905;28;1280;-46
2022/03/29 00:53:33;;;;;;;;;;;7.60;44.90;;;4.85;61.20;95342.06;5033731;28;1417;-44
2022/03/29 00:56:02;;;;;;;;;;;7.60;45.20;;;4.85;60.63;95341.28;5033570;28;1363;-48
2022/03/29 00:58:35;;;;;;;;;;;7.60;45.30;;;4.81;60.97;95338.31;5014745;28;1961;-46
2022/03/29 01:01:04;;;;;;;;;;;7.60;45.40;;;4.80;60.85;95341.19;5023164;28;1363;-43
2022/03/29 01:03:30;;;;;;;;;;;7.60;46.20;;;4.79;61.13;95335.09;5029329;28;1455;-43
2022/03/29 01:06:41;;;;;;;;;;;7.50;45.40;;;4.74;61.84;95336.84;5013086;28;1391;-44
2022/03/29 01:09:06;;;;;;;;;;;7.50;45.60;;;4.83;61.45;95338.09;5014822;28;1340;-43
2022/03/29 01:11:32;;;;;;;;;;;7.50;45.90;;;4.83;60.50;95330.19;5026566;28;1315;-43
2022/03/29 01:13:59;;;;;;;;;;;7.50;46.00;;;4.78;61.41;95325.59;5027304;28;1189;-47
2022/03/29 01:19:12;;;;;;;;;;;7.50;45.80;;;4.66;61.85;95314.25;5030879;28;1910;-44
2022/03/29 01:21:39;;;;;;;;;;;7.40;45.80;;;4.58;62.07;95317.28;5033947;28;1496;-47
2022/03/29 01:24:08;;;;;;;;;;;7.40;45.90;;;4.56;62.16;95312.22;5016350;28;1825;-48
2022/03/29 01:26:34;;;;;;;;;;;7.30;45.90;;;4.58;61.96;95319.91;5003997;28;1324;-45
2022/03/29 01:29:00;;;;;;;;;;;7.30;46.20;;;4.58;61.47;95312.81;5016261;28;1191;-49
2022/03/29 01:31:26;;;;;;;;;;;7.30;46.30;;;4.64;61.62;95308.44;5023663;28;1213;-44
2022/03/29 01:34:05;;;;;;;;;;;7.30;46.50;;;4.66;61.52;95306.34;5026716;28;1257;-45
2022/03/29 01:36:30;;;;;;;;;;;7.30;46.60;;;4.61;61.53;95304.41;5025800;28;883;-48
2022/03/29 01:39:05;;;;;;;;;;;7.20;46.60;;;4.56;62.07;95306.94;5033665;28;1918;-44
2022/03/29 01:41:34;;;;;;;;;;;7.20;46.70;;;4.48;62.19;95302.03;5034643;28;1212;-43
2022/03/29 01:44:09;;;;;;;;;;;7.20;46.80;;;4.41;62.49;95304.00;5033870;28;1391;-43
2022/03/29 01:46:35;;;;;;;;;;;7.10;46.70;;;4.34;63.01;95308.59;5020355;28;1074;-47
2022/03/29 01:49:01;;;;;;;;;;;7.00;46.70;;;4.25;62.84;95302.88;5025475;28;897;-45
2022/03/29 01:51:30;;;;;;;;;;;6.90;46.60;;;4.09;63.88;95303.56;5015210;28;1355;-44
2022/03/29 01:53:59;;;;;;;;;;;6.90;46.70;;;4.04;63.56;95299.00;5028997;28;1363;-42
2022/03/29 01:56:29;;;;;;;;;;;6.90;46.80;;;4.06;63.80;95294.28;5013827;28;1172;-45
2022/03/29 01:59:07;;;;;;;;;;;6.80;47.20;;;4.11;63.37;95298.88;5023491;28;1977;-45
2022/03/29 02:01:58;;;;;;;;;;;6.90;47.60;;;4.12;62.96;95301.28;5001809;28;1315;-43
2022/03/29 02:04:30;;;;;;;;;;;6.90;47.80;;;4.17;63.20;95301.41;5007952;28;1310;-44
2022/03/29 02:07:06;;;;;;;;;;;6.90;47.80;;;4.11;63.84;95297.06;5026652;28;911;-46
2022/03/29 02:09:34;;;;;;;;;;;6.90;47.70;;;4.01;63.46;95296.84;5020550;28;1243;-48
2022/03/29 02:12:01;;;;;;;;;;;6.80;47.50;;;3.91;63.17;95293.94;5017311;28;1263;-45
2022/03/29 02:14:26;;;;;;;;;;;6.80;47.50;;;3.92;63.48;95290.31;5034288;28;1316;-47
2022/03/29 02:17:01;;;;;;;;;;;6.70;47.70;;;3.95;63.58;95292.47;5035995;28;1289;-42
2022/03/29 02:19:27;;;;;;;;;;;6.70;47.70;;;3.94;63.27;95288.22;5037099;28;1906;-43
2022/03/29 02:21:53;;;;;;;;;;;6.70;47.70;;;3.89;64.03;95283.66;5024739;28;1346;-43
2022/03/29 02:24:18;;;;;;;;;;;6.70;47.60;;;3.85;64.32;95273.78;5017286;28;1403;-42
2022/03/29 02:26:44;;;;;;;;;;;6.70;47.60;;;3.82;64.10;95272.41;5016020;28;1322;-43
2022/03/29 02:29:34;;;;;;;;;;;6.70;47.60;;;3.83;63.54;95265.31;5021640;28;1122;-47
2022/03/29 02:32:00;;;;;;;;;;;6.70;47.60;;;3.82;64.03;95263.69;5021163;28;1283;-47
2022/03/29 02:34:26;;;;;;;;;;;6.60;47.60;;;3.82;64.31;95266.34;5015916;28;1325;-44
2022/03/29 02:36:51;;;;;;;;;;;6.60;47.60;;;3.83;63.80;95257.41;5017254;28;1126;-43
2022/03/29 02:39:20;;;;;;;;;;;6.60;47.60;;;3.87;63.89;95264.63;5015699;28;1965;-47
2022/03/29 02:41:45;;;;;;;;;;;6.60;47.70;;;3.84;64.10;95259.00;5017179;28;1338;-45
2022/03/29 02:44:14;;;;;;;;;;;6.60;47.80;;;3.86;64.61;95251.69;5025024;28;1082;-43
2022/03/29 02:46:40;;;;;;;;;;;6.60;47.90;;;3.79;64.29;95257.09;5034274;28;1389;-43
2022/03/29 02:49:26;;;;;;;;;;;6.60;47.80;;;3.80;64.43;95250.78;5028701;28;1196;-44
2022/03/29 02:51:52;;;;;;;;;;;6.60;47.90;;;3.75;65.09;95245.38;5020973;28;1328;-42
2022/03/29 02:54:19;;;;;;;;;;;6.60;48.00;;;3.72;65.28;95243.19;5026490;28;1602;-45
2022/03/29 02:56:45;;;;;;;;;;;6.60;48.00;;;3.73;64.74;95236.94;5015271;28;1552;-45
2022/03/29 02:59:14;;;;;;;;;;;6.60;48.00;;;3.71;64.40;95234.50;5015803;28;1902;-43
2022/03/29 03:01:49;;;;;;;;;;;6.60;48.00;;;3.72;64.91;95230.81;5016295;28;1353;-43
2022/03/29 03:04:14;;;;;;;;;;;6.60;48.10;;;3.74;64.81;95229.81;5017121;28;1331;-43
2022/03/29 03:06:41;;;;;;;;;;;6.60;48.20;;;3.73;65.05;95223.75;5033953;28;1098;-44
2022/03/29 03:09:07;;;;;;;;;;;6.60;48.30;;;3.75;65.32;95223.50;5024301;28;803;-44
2022/03/29 03:11:33;;;;;;;;;;;6.60;48.50;;;3.70;65.19;95221.56;5015640;28;1309;-44
2022/03/29 03:14:02;;;;;;;;;;;6.50;48.50;;;3.69;65.47;95230.50;5029387;28;1205;-43
2022/03/29 03:16:30;;;;;;;;;;;6.50;48.40;;;3.65;65.71;95229.34;5036029;28;799;-43
2022/03/29 03:19:05;;;;;;;;;;;6.50;48.40;;;3.59;65.44;95217.91;5021232;28;1894;-43
2022/03/29 03:21:31;;;;;;;;;;;6.50;48.50;;;3.59;65.95;95215.25;5041990;28;1567;-46
2022/03/29 03:23:59;;;;;;;;;;;6.50;48.60;;;3.59;65.76;95223.16;5016301;28;1311;-44
2022/03/29 03:26:25;;;;;;;;;;;6.50;48.80;;;3.64;65.85;95206.69;5014998;28;1880;-42
2022/03/29 03:28:53;;;;;;;;;;;6.50;49.00;;;3.76;65.30;95206.66;5031743;28;1198;-46
2022/03/29 03:31:19;;;;;;;;;;;6.50;49.30;;;3.77;64.85;95214.34;5025358;28;1336;-44
2022/03/29 03:33:45;;;;;;;;;;;6.50;49.30;;;3.75;65.09;95210.34;5030564;28;1158;-45
2022/03/29 03:36:10;;;;;;;;;;;6.50;49.10;;;3.74;65.19;95209.53;5018112;28;1290;-42
2022/03/29 03:38:36;;;;;;;;;;;6.60;49.00;;;3.75;64.99;95215.59;5018703;28;1898;-44
2022/03/29 03:41:05;;;;;;;;;;;6.60;49.00;;;3.71;64.91;95208.16;5015868;28;1359;-43
2022/03/29 03:43:33;;;;;;;;;;;6.50;48.90;;;3.72;64.94;95199.22;5015787;28;1310;-44
2022/03/29 03:45:59;;;;;;;;;;;6.50;48.90;;;3.72;65.07;95203.69;5025304;28;1113;-43
2022/03/29 03:48:31;;;;;;;;;;;6.50;48.90;;;3.68;65.09;95197.28;5022058;28;1427;-45
2022/03/29 03:51:01;;;;;;;;;;;6.50;48.90;;;3.61;65.71;95199.25;5015713;28;1289;-44
2022/03/29 03:53:26;;;;;;;;;;;6.40;48.90;;;3.60;64.82;95193.16;5015754;28;1371;-44
2022/03/29 03:55:52;;;;;;;;;;;6.40;49.10;;;3.64;64.92;95189.03;5026140;28;1137;-43
2022/03/29 03:58:18;;;;;;;;;;;6.40;49.30;;;3.64;65.17;95189.03;5035132;28;1956;-46
2022/03/29 04:00:43;;;;;;;;;;;6.40;49.30;;;3.65;65.62;95184.56;5035295;28;1383;-45
2022/03/29 04:03:12;;;;;;;;;;;6.40;49.50;;;3.63;65.22;95190.06;5035117;28;1349;-46
2022/03/29 04:05:47;;;;;;;;;;;6.40;49.50;;;3.65;64.96;95181.94;5006916;28;1220;-45
2022/03/29 04:08:31;;;;;;;;;;;6.40;49.60;;;3.80;64.85;95179.63;5015321;28;1385;-45
2022/03/29 04:10:57;;;;;;;;;;;6.50;49.90;;;3.82;64.29;95187.28;5029521;28;1382;-43
2022/03/29 04:13:26;;;;;;;;;;;6.50;49.80;;;3.83;64.43;95189.72;5017100;28;1149;-44
2022/03/29 04:15:51;;;;;;;;;;;6.60;49.70;;;3.88;64.16;95181.91;5034952;28;1171;-43
2022/03/29 04:18:17;;;;;;;;;;;6.60;49.70;;;3.93;64.12;95178.56;5034795;28;1906;-44
2022/03/29 04:20:43;;;;;;;;;;;6.60;49.70;;;3.90;64.27;95173.78;5033503;28;1295;-48
2022/03/29 04:23:11;;;;;;;;;;;6.70;49.40;;;3.89;64.01;95178.25;5032788;28;1333;-45
2022/03/29 04:25:38;;;;;;;;;;;6.60;49.40;;;3.90;64.27;95177.19;5018321;28;1146;-43
2022/03/29 04:28:06;;;;;;;;;;;6.70;49.40;;;3.92;63.33;95174.34;5013869;28;1383;-44
2022/03/29 04:30:32;;;;;;;;;;;6.70;50.00;;;3.91;62.76;95170.09;5014892;28;1318;-45
2022/03/29 04:32:58;;;;;;;;;;;6.70;49.20;;;3.92;63.41;95174.34;5013589;28;1213;-42
2022/03/29 04:35:23;;;;;;;;;;;6.70;49.20;;;3.98;63.49;95168.16;5017025;28;1354;-44
2022/03/29 04:37:56;;;;;;;;;;;6.70;49.20;;;4.10;62.84;95168.09;5025910;28;1140;-44
2022/03/29 04:40:28;;;;;;;;;;;6.80;49.20;;;4.22;62.41;95163.59;5026678;28;1906;-45
2022/03/29 04:43:00;;;;;;;;;;;6.80;49.30;;;4.26;62.61;95159.47;5014899;28;1298;-45
2022/03/29 04:45:25;;;;;;;;;;;6.90;49.30;;;4.35;62.01;95160.66;5019192;28;1438;-43
2022/03/29 04:47:54;;;;;;;;;;;7.00;49.30;;;4.43;62.31;95164.00;5034358;28;1437;-47
2022/03/29 04:50:23;;;;;;;;;;;7.00;49.30;;;4.42;62.44;95160.56;5034413;28;1197;-42
2022/03/29 04:52:49;;;;;;;;;;;7.10;49.30;;;4.46;61.80;95161.69;5021501;28;1216;-42
2022/03/29 04:55:24;;;;;;;;;;;7.10;49.20;;;4.50;62.87;95156.72;5019288;28;1370;-45
2022/03/29 04:57:50;;;;;;;;;;;7.20;49.30;;;4.48;62.29;95156.97;5032961;28;1280;-44
2022/03/29 05:00:20;;;;;;;;;;;7.20;49.10;;;4.45;62.07;95154.81;5026862;28;1910;-45
2022/03/29 05:02:46;;;;;;;;;;;7.20;49.00;;;4.47;62.90;95155.34;5014370;28;1409;-44
2022/03/29 05:05:13;;;;;;;;;;;7.20;49.20;;;4.44;62.38;95147.91;5020151;28;1235;-46
2022/03/29 05:07:42;;;;;;;;;;;7.20;49.00;;;4.39;62.75;95151.28;5016562;28;1007;-45
2022/03/29 05:10:09;;;;;;;;;;;7.20;49.00;;;4.37;61.43;95149.91;5020741;28;890;-42
2022/03/29 05:12:42;;;;;;;;;;;7.20;49.00;;;4.39;62.44;95148.63;5034490;28;1519;-43
2022/03/29 05:15:08;;;;;;;;;;;7.20;49.00;;;4.37;62.38;95153.34;5033500;28;1439;-45
2022/03/29 05:17:35;;;;;;;;;;;7.20;48.90;;;4.36;62.18;95146.47;5021242;28;1022;-43
2022/03/29 05:20:02;;;;;;;;;;;7.20;49.00;;;4.37;63.18;95148.06;5030024;28;1910;-42
2022/03/29 05:22:31;;;;;;;;;;;7.20;48.90;;;4.36;62.66;95151.75;5017024;28;1298;-42
2022/03/29 05:24:57;;;;;;;;;;;7.30;48.90;;;4.36;63.13;95148.31;5024231;28;1074;-44
2022/03/29 05:27:25;;;;;;;;;;;7.30;48.80;;;4.39;62.20;95153.13;5030649;28;1050;-46
2022/03/29 05:29:51;;;;;;;;;;;7.30;48.80;;;4.45;62.42;95146.91;5012819;28;1095;-48
2022/03/29 05:32:18;;;;;;;;;;;7.30;48.90;;;4.51;62.94;95148.59;5028835;28;1351;-46
2022/03/29 05:34:48;;;;;;;;;;;7.30;48.80;;;4.48;63.42;95150.88;5023880;28;1569;-44
2022/03/29 05:37:14;;;;;;;;;;;7.40;48.90;;;4.41;63.60;95154.47;5031964;28;1628;-44
2022/03/29 05:39:40;;;;;;;;;;;7.40;49.10;;;4.41;64.24;95154.47;5023178;28;1918;-43
2022/03/29 05:42:07;;;;;;;;;;;7.40;48.90;;;4.38;63.92;95154.94;5012726;28;1339;-49
2022/03/29 05:44:32;;;;;;;;;;;7.40;49.00;;;4.39;63.28;95156.56;5019181;28;1622;-45
2022/03/29 05:49:45;;;;;;;;;;;7.40;48.90;;;4.49;62.71;95153.28;5015251;28;1200;-43
2022/03/29 05:52:11;;;;;;;;;;;7.50;48.90;;;4.56;62.85;95147.88;5030660;28;1387;-45
2022/03/29 05:54:36;;;;;;;;;;;7.60;48.90;;;4.62;62.40;95147.72;5026693;28;1642;-43
2022/03/29 05:57:03;;;;;;;;;;;7.70;48.90;;;4.76;62.99;95153.47;5020741;28;1315;-43
2022/03/29 05:59:35;;;;;;;;;;;7.80;48.70;;;4.85;61.15;95156.53;5027204;28;1906;-44
2022/03/29 06:02:25;;;;;;;;;;;7.90;48.60;;;4.98;61.09;95158.06;5028577;28;1202;-46
2022/03/29 06:04:50;;;;;;;;;;;8.10;48.50;;;5.07;62.59;95159.28;5027052;28;2433;-46
2022/03/29 06:07:16;;;;;;;;;;;8.30;48.20;;;5.17;62.25;95161.28;5017235;28;1114;-44
2022/03/29 06:09:42;;;;;;;;;;;8.40;48.00;;;5.23;61.74;95157.66;5013097;28;1123;-44
2022/03/29 06:12:08;;;;;;;;;;;8.60;47.70;;;5.36;61.24;95161.81;5017467;28;3000;-47
2022/03/29 06:14:33;;;;;;;;;;;8.70;47.60;;;5.48;60.81;95151.97;5027797;28;1318;-45
2022/03/29 06:17:04;;;;;;;;;;;8.90;47.40;;;5.63;58.43;95157.47;5037812;23;3550;-52
2022/03/29 06:19:30;;;;;;;;;;;9.10;47.20;;;5.80;60.14;95158.25;5009290;28;1978;-54
2022/03/29 06:21:56;;;;;;;;;;;9.30;46.90;;;5.95;58.84;95159.50;5025308;28;1458;-54
2022/03/29 06:24:22;;;;;;;;;;;9.50;46.60;;;6.07;60.51;95154.09;4997456;28;11947;-55
2022/03/29 06:27:21;;;;;;;;;;;9.70;46.40;;;6.20;60.02;95159.78;5008201;27;13180;-56
2022/03/29 06:29:56;;;;;;;;;;;9.90;46.20;;;6.35;61.17;95153.09;5047650;28;1435;-58
2022/03/29 06:32:25;;;;;;;;;;;10.10;46.00;;;6.49;59.81;95154.31;5041143;28;1423;-56
2022/03/29 06:34:50;;;;;;;;;;;10.30;45.90;;;6.69;58.75;95159.78;5051694;28;2813;-52
2022/03/29 06:37:16;;;;;;;;;;;10.60;45.60;;;6.91;56.63;95161.59;5050758;28;1544;-56
2022/03/29 06:39:42;;;;;;;;;;;10.80;45.30;;;7.14;58.70;95155.16;5051899;28;1292;-56
2022/03/29 06:42:11;;;;;;;;;;;11.10;45.10;;;7.35;54.91;95161.41;5053807;28;1392;-52
2022/03/29 06:44:38;;;;;;;;;;;11.40;44.80;;;7.60;53.73;95158.94;5046797;28;1402;-54
2022/03/29 06:47:04;;;;;;;;;;;11.70;44.50;;;7.85;51.53;95158.28;5055482;28;1905;-49
2022/03/29 06:49:30;;;;;;;;;;;12.00;44.20;;;8.10;50.25;95162.13;5047894;28;1361;-54
2022/03/29 06:51:59;;;;;;;;;;;12.20;43.90;;;8.34;51.68;95159.84;5041515;28;1400;-47
2022/03/29 06:54:24;;;;;;;;;;;12.40;43.60;;;8.53;51.51;95158.31;5057887;28;1282;-49
2022/03/29 06:56:53;;;;;;;;;;;12.60;43.30;;;8.69;51.84;95161.03;5057791;28;1276;-55
2022/03/29 06:59:19;;;;;;;;;;;12.80;43.20;;;8.81;51.20;95156.28;5057846;28;1303;-51
2022/03/29 07:04:25;;;;;;;;;;;13.30;46.10;;;9.32;49.55;95150.19;4903779;27;20383;-66
2022/03/29 07:06:54;;;;;;;;;;;12.30;44.00;;;9.63;49.92;95157.06;4999362;28;20016;-65
2022/03/29 07:26:37;;;;;;;17.90;9.55;;;20.50;39.00;;;17.93;41.63;95166.66;4778099;28;20401;-35
2022/03/29 07:29:04;;;;;;;13.32;9.20;;;21.40;37.90;;;18.63;37.83;95169.84;4896640;28;20164;-43
2022/03/29 07:31:37;;;;;;;11.32;8.35;;;22.20;33.80;;;19.32;36.27;95169.44;4903893;28;20055;-39
2022/03/29 07:34:05;;;;;;;14.90;8.93;;;22.50;32.40;;;19.90;35.13;95164.19;4939008;29;20035;-41
2022/03/29 07:36:32;;;;;;;11.07;7.95;;;22.70;32.10;;;20.36;34.83;95166.84;4951519;28;20118;-44
2022/03/29 07:39:00;;;;;;;13.30;8.85;;;22.90;32.00;;;20.75;34.97;95177.03;4982207;28;20035;-44
2022/03/29 07:41:26;;;;;;;14.05;9.10;;;23.10;32.40;;;21.08;34.54;95172.59;4951569;29;20042;-43
2022/03/29 07:43:54;;;;;;;12.07;7.45;;;23.30;31.90;;;21.38;34.28;95170.44;4970610;28;20024;-43
2022/03/29 07:46:23;;;;;;;10.35;8.55;;;23.50;31.90;;;21.61;33.98;95168.75;4951110;29;20035;-43
2022/03/29 07:48:52;;;;;;;9.32;7.60;;;23.60;31.80;;;21.84;33.89;95165.47;4950068;28;20032;-43
2022/03/29 07:51:21;;;;;;;11.38;7.75;;;23.70;32.30;;;22.02;33.71;95169.47;4950100;28;20047;-43
2022/03/29 07:53:47;;;;;;;11.35;7.75;;;23.80;31.80;;;22.21;33.63;95165.31;4951044;28;20059;-45
2022/03/29 07:56:14;;;;;;;10.75;7.70;;;23.90;31.60;;;22.35;33.43;95162.97;4950052;28;20168;-43
2022/03/29 07:58:42;;;;;;;10.35;6.95;;;23.90;31.50;;;22.49;33.51;95165.25;4949777;28;20395;-43
2022/03/29 08:01:11;;;;;;;12.95;7.97;;;24.00;31.60;;;22.60;33.46;95158.16;4951168;28;20110;-44
2022/03/29 08:03:42;;;;;;;10.38;7.20;;;24.10;31.50;;;22.70;33.21;95154.91;4949769;29;20522;-43
2022/03/29 08:06:07;;;;;;;10.15;7.00;;;24.10;31.50;;;22.80;33.24;95151.63;4950922;28;20407;-43
2022/03/29 08:08:36;;;;;;;11.05;7.32;;;24.10;31.70;;;22.89;33.20;95153.38;4950928;28;20039;-43
2022/03/29 08:11:05;;;;;;;10.20;6.53;;;24.10;31.70;;;22.95;33.29;95149.28;4950947;28;20035;-43
2022/03/29 08:13:35;;;;;;;9.45;6.70;;;24.20;31.90;;;23.01;33.09;95145.94;4949727;28;20031;-44
2022/03/29 08:16:04;;;;;;;10.63;6.78;;;24.20;31.90;;;23.07;33.18;95149.94;4950959;29;20047;-44
2022/03/29 08:18:31;;;;;;;8.27;6.90;;;24.20;31.80;;;23.13;33.10;95142.31;4950723;28;20118;-46
2022/03/29 08:20:57;;;;;;;7.95;6.80;;;24.30;31.90;;;23.17;33.03;95143.19;4965682;28;20475;-44
2022/03/29 08:23:30;;;;;;;6.97;6.28;;;24.20;31.80;;;23.21;33.14;95138.59;4950818;29;20035;-43
2022/03/29 08:26:02;;;;;;;7.60;6.57;;;24.20;32.20;;;23.26;33.15;95134.81;4963611;28;20134;-43
2022/03/29 08:28:34;;;;;;;8.73;6.07;;;24.30;32.10;;;23.29;33.05;95140.31;4968755;28;20122;-43
2022/03/29 08:31:03;;;;;;;9.43;6.87;;;24.30;32.10;;;23.32;33.02;95134.19;4969940;28;20023;-44
2022/03/29 08:33:28;;;;;;;9.35;6.97;;;24.30;32.00;;;23.37;33.01;95140.47;4969832;28;20622;-44
2022/03/29 08:35:57;;;;;;;7.72;6.35;;;24.30;32.20;;;23.38;33.05;95134.69;4999225;28;20053;-43
2022/03/29 08:38:27;;;;;;;8.77;6.30;;;24.30;32.30;;;23.42;32.79;95130.09;4956804;28;20071;-43
2022/03/29 08:40:59;;;;;;;7.20;6.20;;;24.30;32.40;;;23.44;32.95;95130.53;4988035;28;20027;-43
2022/03/29 08:43:29;;;;;;;9.50;6.70;;;24.40;32.20;;;23.48;32.76;95127.91;4947917;29;20028;-43
2022/03/29 08:45:56;;;;;;;8.43;6.55;;;24.50;32.20;;;23.48;32.76;95125.19;4985893;28;20043;-43
2022/03/29 08:48:30;;;;;;;7.43;6.28;;;24.50;32.30;;;23.49;32.84;95119.38;4955579;29;20495;-44
2022/03/29 08:50:59;;;;;;;8.38;6.20;;;24.50;32.20;;;23.52;32.86;95120.59;4955512;29;20023;-43
2022/03/29 08:53:30;;;;;;;7.32;5.72;;;24.40;32.40;;;23.55;32.73;95122.59;4956565;28;20487;-46
2022/03/29 08:56:02;;;;;;;9.57;6.35;;;24.40;32.30;;;23.55;32.59;95117.94;4956532;28;20035;-46
2022/03/29 08:58:28;;;;;;;6.75;5.97;;;24.50;32.20;;;23.56;32.58;95119.50;4956428;28;20031;-46
2022/03/29 09:01:00;;;;;;;7.35;6.38;;;24.40;32.20;;;23.59;32.58;95109.06;4956370;28;20035;-46
2022/03/29 09:03:34;;;;;;;6.15;5.45;;;24.50;32.30;;;23.59;32.78;95109.84;4956428;28;20035;-46
2022/03/29 09:06:08;;;;;;;6.90;5.78;;;24.40;32.30;;;23.61;32.42;95109.50;4956284;28;20121;-46
2022/03/29 09:08:54;;;;;;;8.63;6.53;;;24.50;32.40;;;23.62;32.54;95102.91;4955191;29;20023;-46
2022/03/29 09:11:21;;;;;;;7.10;6.05;;;24.50;32.30;;;23.61;32.60;95102.13;4954845;28;20043;-46
2022/03/29 09:14:04;;;;;;;6.50;5.80;;;24.50;32.20;;;23.63;32.67;95099.03;4955079;29;20027;-46
2022/03/29 09:16:36;;;;;;;7.55;5.70;;;24.50;32.40;;;23.64;32.45;95097.91;4954940;28;20035;-46
2022/03/29 09:19:09;;;;;;;7.13;6.20;;;24.70;32.20;;;23.65;32.66;95096.75;4956192;28;20031;-46
2022/03/29 09:21:43;;;;;;;8.25;5.57;;;24.50;32.30;;;23.66;32.43;95093.69;4954784;28;20040;-46
2022/03/29 09:24:14;;;;;;;8.45;5.80;;;24.50;32.30;;;23.66;32.61;95090.97;4954727;29;20035;-47
2022/03/29 09:26:44;;;;;;;7.75;6.28;;;24.60;32.40;;;23.66;32.52;95082.81;4954922;28;20027;-46
2022/03/29 09:29:34;;;;;;;7.03;5.88;;;24.50;32.40;;;23.68;32.44;95077.78;4953675;28;20032;-46
2022/03/29 09:32:12;;;;;;;8.13;5.85;;;24.50;32.50;;;23.69;32.54;95073.97;4954670;28;20118;-46
2022/03/29 09:34:38;;;;;;;7.28;6.18;;;24.50;32.60;;;23.70;32.55;95074.75;4954954;28;20046;-46
2022/03/29 09:37:07;;;;;;;6.25;5.65;;;24.50;32.50;;;23.70;32.50;95066.59;4954624;28;20047;-46
2022/03/29 09:39:44;;;;;;;8.27;5.63;;;24.50;32.50;;;23.71;32.52;95071.66;4954832;29;20035;-46
2022/03/29 09:42:17;;;;;;;6.93;5.57;;;24.50;32.50;;;23.71;32.45;95066.22;4968861;28;20078;-46
2022/03/29 09:44:53;;;;;;;6.25;5.65;;;24.50;32.60;;;23.72;32.34;95072.44;4955981;28;20030;-46
2022/03/29 09:47:21;;;;;;;6.05;5.00;;;24.50;32.50;;;23.72;32.31;95062.38;4955742;28;20121;-46
2022/03/29 09:50:06;;;;;;;6.50;5.78;;;24.50;32.50;;;23.73;32.47;95063.94;4955128;28;20479;-46
2022/03/29 09:53:03;;;;;;;6.55;5.38;;;24.60;32.50;;;23.74;32.46;95062.00;4955731;28;20033;-46
2022/03/29 09:55:38;;;;;;;6.85;5.50;;;24.60;32.50;;;23.74;32.23;95049.19;4954527;28;20047;-46
2022/03/29 09:58:14;;;;;;;6.20;5.57;;;24.60;32.40;;;23.75;32.32;95047.25;4954686;28;20117;-46
2022/03/29 10:00:41;;;;;;;6.60;5.45;;;24.70;32.40;;;23.75;32.36;95036.38;4954353;28;20441;-46
2022/03/29 10:03:10;;;;;;;8.10;5.32;;;24.60;32.40;;;23.76;32.49;95035.25;4955273;28;20042;-46
2022/03/29 10:05:39;;;;;;;6.28;5.55;;;24.70;32.30;;;23.76;32.53;95036.03;4953969;29;20034;-46
2022/03/29 10:11:07;;;;;;;6.15;5.22;;;24.80;32.20;;;23.78;32.38;95028.31;4954875;29;20634;-46
2022/03/29 10:13:37;;;;;;;7.40;5.15;;;24.70;32.40;;;23.78;32.43;95031.03;4953889;28;20031;-46
2022/03/29 10:16:16;;;;;;;6.15;5.53;;;24.60;32.50;;;23.79;32.59;95026.38;4937993;28;20031;-46
2022/03/29 10:18:46;;;;;;;6.05;5.30;;;24.80;32.30;;;23.80;32.46;95019.00;4955173;28;20065;-46
2022/03/29 10:21:16;;;;;;;7.95;5.65;;;24.80;32.30;;;23.81;32.35;95017.84;4954934;28;20498;-46
2022/03/29 10:23:49;;;;;;;6.20;5.28;;;24.80;32.30;;;23.81;32.46;95009.69;4937888;29;20042;-45
2022/03/29 10:26:27;;;;;;;;;;;24.80;32.20;;;23.81;32.38;94999.59;4954997;28;20048;-46
2022/03/29 10:28:56;;;;;;;6.15;5.35;;;24.80;32.20;;;23.82;32.52;94997.63;4954978;29;19921;-46
2022/03/29 10:31:31;;;;;;;5.70;4.88;;;24.90;32.10;;;23.82;32.47;94990.28;4954949;28;20031;-46
2022/03/29 10:34:30;;;;;;;5.97;5.30;;;24.80;32.30;;;23.83;32.52;94993.78;4953642;29;20035;-46
2022/03/29 10:37:21;;;;;;;6.43;5.15;;;24.80;32.30;;;23.84;32.45;94989.91;4954950;28;20110;-46
2022/03/29 10:40:05;;;;;;;5.65;5.05;;;24.90;32.30;;;23.85;32.30;94980.59;4954797;28;20038;-46
2022/03/29 10:42:42;;;;;;;6.65;5.40;;;24.80;32.50;;;23.86;32.68;94982.19;4952567;28;20035;-46
2022/03/29 10:45:46;;;;;;;7.97;5.47;;;24.70;32.70;;;23.86;32.59;94976.75;4947367;28;20565;-46
2022/03/29 10:48:17;;;;;;;5.55;4.95;;;24.70;32.80;;;23.86;32.63;94974.81;4953525;29;20032;-46
2022/03/29 10:50:56;;;;;;;7.20;5.80;;;24.70;32.80;;;23.87;32.48;94972.88;4953387;28;20027;-46
2022/03/29 10:53:47;;;;;;;5.93;5.03;;;24.70;32.90;;;23.86;32.80;94966.66;4954624;28;20034;-46
2022/03/29 10:56:26;;;;;;;6.93;5.75;;;24.80;33.10;;;23.87;32.80;94968.22;4953448;28;20394;-46
2022/03/29 10:59:04;;;;;;;6.20;5.60;;;24.70;32.90;;;23.87;32.76;94960.06;4954901;28;20106;-44
2022/03/29 11:01:32;;;;;;;6.03;5.35;;;24.70;33.00;;;23.87;32.65;94960.06;4954304;28;20443;-46
2022/03/29 11:04:28;;;;;;;5.63;4.68;;;24.70;33.00;;;23.88;32.61;94961.66;4953171;28;20481;-46
2022/03/29 11:07:06;;;;;;;5.63;5.03;;;24.70;32.90;;;23.89;32.49;94959.72;4953039;29;20031;-46
2022/03/29 11:09:34;;;;;;;7.03;5.13;;;24.70;32.80;;;23.89;32.49;94954.28;4954268;29;20537;-45
2022/03/29 11:12:03;;;;;;;6.10;5.25;;;24.70;32.70;;;23.89;32.47;94943.38;4937162;29;20078;-46
2022/03/29 11:14:30;;;;;;;7.63;5.75;;;24.80;32.70;;;23.89;32.30;94944.16;4952966;28;20027;-46
2022/03/29 11:17:11;;;;;;;6.20;5.60;;;24.70;32.70;;;23.90;32.55;94936.78;4954153;28;20041;-47
2022/03/29 11:19:56;;;;;;;8.43;5.72;;;24.70;32.60;;;23.91;32.42;94933.72;4954194;29;20027;-46
2022/03/29 11:22:22;;;;;;;8.77;5.47;;;24.70;32.40;;;23.92;32.29;94929.06;4954254;28;20402;-46
2022/03/29 11:24:58;;;;;;;6.13;5.35;;;24.70;32.30;;;23.93;32.16;94923.25;4953918;28;20134;-46
2022/03/29 11:27:48;;;;;;;5.65;4.88;;;24.70;32.20;;;23.93;32.19;94915.09;4954179;28;20039;-46
2022/03/29 11:30:14;;;;;;;5.30;4.78;;;24.70;32.20;;;23.94;32.06;94916.69;4954129;28;20253;-46
2022/03/29 11:32:43;;;;;;;6.03;5.38;;;24.70;32.20;;;23.94;32.10;94911.22;4953982;28;20055;-46
2022/03/29 11:35:15;;;;;;;6.32;4.90;;;24.80;32.80;;;23.95;31.82;94912.78;4953030;29;20023;-46
2022/03/29 11:37:46;;;;;;;8.10;5.33;;;24.80;32.10;;;23.95;32.09;94907.34;4953990;29;20486;-46
2022/03/29 11:40:19;;;;;;;5.43;4.90;;;24.80;32.00;;;23.95;32.06;94907.34;4952806;29;20297;-46
2022/03/29 11:42:59;;;;;;;6.20;5.00;;;24.80;31.90;;;23.97;31.80;94904.25;4951425;28;20517;-46
2022/03/29 11:45:44;;;;;;;6.88;5.47;;;24.80;31.90;;;23.97;31.86;94902.34;4948442;29;20114;-46
2022/03/29 11:48:18;;;;;;;6.07;5.10;;;24.80;31.80;;;23.98;31.47;94894.97;4952761;28;20031;-44
2022/03/29 11:50:52;;;;;;;5.60;5.00;;;24.80;31.80;;;23.98;31.67;94889.53;4953944;28;20442;-46